sensor_id;sensor_type;location;lat;lon;timestamp;P1;durP1;ratioP1;P2;durP2;ratioP2
53044;SDS011;38930;52.766;6.884;2022-07-18T00:01:25;7.37;;;5.70;;
53044;SDS011;38930;52.766;6.884;2022-07-18T00:03:50;9.43;;;5.83;;
53044;SDS011;38930;52.766;6.884;2022-07-18T00:06:16;8.97;;;5.80;;
53044;SDS011;38930;52.766;6.884;2022-07-18T00:08:41;8.00;;;5.73;;
53044;SDS011;38930;52.766;6.884;2022-07-18T00:11:07;8.87;;;5.30;;
53044;SDS011;38930;52.766;6.884;2022-07-18T00:13:33;7.50;;;5.17;;
53044;SDS011;38930;52.766;6.884;2022-07-18T00:15:58;7.10;;;5.43;;
53044;SDS011;38930;52.766;6.884;2022-07-18T00:18:24;8.80;;;5.90;;
53044;SDS011;38930;52.766;6.884;2022-07-18T00:20:49;7.97;;;5.80;;
53044;SDS011;38930;52.766;6.884;2022-07-18T00:23:15;6.60;;;5.30;;
53044;SDS011;38930;52.766;6.884;2022-07-18T00:25:41;8.17;;;5.77;;
53044;SDS011;38930;52.766;6.884;2022-07-18T00:28:06;6.57;;;5.37;;
53044;SDS011;38930;52.766;6.884;2022-07-18T00:30:32;7.37;;;5.23;;
53044;SDS011;38930;52.766;6.884;2022-07-18T00:32:57;8.20;;;5.63;;
53044;SDS011;38930;52.766;6.884;2022-07-18T00:35:23;10.00;;;6.17;;
53044;SDS011;38930;52.766;6.884;2022-07-18T00:37:49;7.50;;;5.75;;
53044;SDS011;38930;52.766;6.884;2022-07-18T00:40:15;7.80;;;5.87;;
53044;SDS011;38930;52.766;6.884;2022-07-18T00:42:40;9.13;;;5.70;;
53044;SDS011;38930;52.766;6.884;2022-07-18T00:45:06;10.07;;;6.43;;
53044;SDS011;38930;52.766;6.884;2022-07-18T00:47:32;8.07;;;6.30;;
53044;SDS011;38930;52.766;6.884;2022-07-18T00:49:58;8.73;;;6.27;;
53044;SDS011;38930;52.766;6.884;2022-07-18T00:52:23;10.30;;;6.57;;
53044;SDS011;38930;52.766;6.884;2022-07-18T00:54:49;8.40;;;6.13;;
53044;SDS011;38930;52.766;6.884;2022-07-18T00:57:15;9.07;;;5.77;;
53044;SDS011;38930;52.766;6.884;2022-07-18T00:59:41;9.88;;;5.57;;
53044;SDS011;38930;52.766;6.884;2022-07-18T01:02:26;7.40;;;5.88;;
53044;SDS011;38930;52.766;6.884;2022-07-18T01:04:51;7.47;;;5.80;;
53044;SDS011;38930;52.766;6.884;2022-07-18T01:07:17;6.72;;;5.57;;
53044;SDS011;38930;52.766;6.884;2022-07-18T01:09:43;7.77;;;5.97;;
53044;SDS011;38930;52.766;6.884;2022-07-18T01:12:09;7.70;;;5.83;;
53044;SDS011;38930;52.766;6.884;2022-07-18T01:14:35;7.73;;;5.47;;
53044;SDS011;38930;52.766;6.884;2022-07-18T01:17:01;6.40;;;5.47;;
53044;SDS011;38930;52.766;6.884;2022-07-18T01:19:27;7.53;;;5.93;;
53044;SDS011;38930;52.766;6.884;2022-07-18T01:21:53;8.53;;;5.63;;
53044;SDS011;38930;52.766;6.884;2022-07-18T01:24:18;9.40;;;5.83;;
53044;SDS011;38930;52.766;6.884;2022-07-18T01:26:44;8.18;;;5.28;;
53044;SDS011;38930;52.766;6.884;2022-07-18T01:29:10;9.33;;;5.70;;
53044;SDS011;38930;52.766;6.884;2022-07-18T01:31:36;7.43;;;5.30;;
53044;SDS011;38930;52.766;6.884;2022-07-18T01:34:01;8.23;;;5.43;;
53044;SDS011;38930;52.766;6.884;2022-07-18T01:36:27;7.93;;;5.27;;
53044;SDS011;38930;52.766;6.884;2022-07-18T01:38:53;7.90;;;5.77;;
53044;SDS011;38930;52.766;6.884;2022-07-18T01:41:18;6.57;;;5.37;;
53044;SDS011;38930;52.766;6.884;2022-07-18T01:43:44;8.97;;;5.67;;
53044;SDS011;38930;52.766;6.884;2022-07-18T01:46:10;8.77;;;5.47;;
53044;SDS011;38930;52.766;6.884;2022-07-18T01:48:37;6.20;;;5.30;;
53044;SDS011;38930;52.766;6.884;2022-07-18T01:51:04;8.02;;;6.35;;
53044;SDS011;38930;52.766;6.884;2022-07-18T01:53:29;7.75;;;6.07;;
53044;SDS011;38930;52.766;6.884;2022-07-18T01:55:55;9.30;;;6.03;;
53044;SDS011;38930;52.766;6.884;2022-07-18T01:58:21;10.50;;;5.30;;
53044;SDS011;38930;52.766;6.884;2022-07-18T02:00:46;7.77;;;5.60;;
53044;SDS011;38930;52.766;6.884;2022-07-18T02:03:12;8.23;;;6.17;;
53044;SDS011;38930;52.766;6.884;2022-07-18T02:05:37;7.70;;;5.63;;
53044;SDS011;38930;52.766;6.884;2022-07-18T02:08:03;9.70;;;5.97;;
53044;SDS011;38930;52.766;6.884;2022-07-18T02:10:29;9.07;;;5.80;;
53044;SDS011;38930;52.766;6.884;2022-07-18T02:12:54;8.10;;;5.53;;
53044;SDS011;38930;52.766;6.884;2022-07-18T02:15:22;7.93;;;5.60;;
53044;SDS011;38930;52.766;6.884;2022-07-18T02:17:48;8.13;;;5.40;;
53044;SDS011;38930;52.766;6.884;2022-07-18T02:20:14;9.20;;;5.73;;
53044;SDS011;38930;52.766;6.884;2022-07-18T02:22:40;8.40;;;5.93;;
53044;SDS011;38930;52.766;6.884;2022-07-18T02:25:06;7.70;;;5.60;;
53044;SDS011;38930;52.766;6.884;2022-07-18T02:27:32;8.85;;;5.78;;
53044;SDS011;38930;52.766;6.884;2022-07-18T02:29:58;6.77;;;5.17;;
53044;SDS011;38930;52.766;6.884;2022-07-18T02:32:23;6.73;;;5.40;;
53044;SDS011;38930;52.766;6.884;2022-07-18T02:34:49;7.80;;;5.73;;
53044;SDS011;38930;52.766;6.884;2022-07-18T02:37:15;7.27;;;6.17;;
53044;SDS011;38930;52.766;6.884;2022-07-18T02:39:41;8.00;;;6.07;;
53044;SDS011;38930;52.766;6.884;2022-07-18T02:42:07;9.07;;;5.77;;
53044;SDS011;38930;52.766;6.884;2022-07-18T02:44:33;7.20;;;5.50;;
53044;SDS011;38930;52.766;6.884;2022-07-18T02:46:59;9.03;;;6.10;;
53044;SDS011;38930;52.766;6.884;2022-07-18T02:49:25;7.90;;;5.80;;
53044;SDS011;38930;52.766;6.884;2022-07-18T02:51:57;8.73;;;5.72;;
53044;SDS011;38930;52.766;6.884;2022-07-18T02:54:30;8.18;;;6.22;;
53044;SDS011;38930;52.766;6.884;2022-07-18T02:56:57;7.78;;;5.78;;
53044;SDS011;38930;52.766;6.884;2022-07-18T02:59:23;7.63;;;5.27;;
53044;SDS011;38930;52.766;6.884;2022-07-18T03:01:50;9.88;;;5.93;;
53044;SDS011;38930;52.766;6.884;2022-07-18T03:04:16;8.20;;;5.80;;
53044;SDS011;38930;52.766;6.884;2022-07-18T03:06:44;9.15;;;5.93;;
53044;SDS011;38930;52.766;6.884;2022-07-18T03:09:10;7.57;;;5.82;;
53044;SDS011;38930;52.766;6.884;2022-07-18T03:11:36;7.53;;;5.77;;
53044;SDS011;38930;52.766;6.884;2022-07-18T03:14:02;9.67;;;6.53;;
53044;SDS011;38930;52.766;6.884;2022-07-18T03:16:28;9.43;;;6.13;;
53044;SDS011;38930;52.766;6.884;2022-07-18T03:18:53;10.53;;;6.47;;
53044;SDS011;38930;52.766;6.884;2022-07-18T03:21:19;9.37;;;6.90;;
53044;SDS011;38930;52.766;6.884;2022-07-18T03:23:45;8.95;;;6.18;;
53044;SDS011;38930;52.766;6.884;2022-07-18T03:26:11;9.33;;;6.60;;
53044;SDS011;38930;52.766;6.884;2022-07-18T03:28:36;7.82;;;6.40;;
53044;SDS011;38930;52.766;6.884;2022-07-18T03:31:02;9.87;;;6.67;;
53044;SDS011;38930;52.766;6.884;2022-07-18T03:33:28;8.13;;;5.93;;
53044;SDS011;38930;52.766;6.884;2022-07-18T03:35:54;9.17;;;6.27;;
53044;SDS011;38930;52.766;6.884;2022-07-18T03:38:20;10.80;;;6.53;;
53044;SDS011;38930;52.766;6.884;2022-07-18T03:40:45;8.73;;;6.37;;
53044;SDS011;38930;52.766;6.884;2022-07-18T03:43:11;8.82;;;6.18;;
53044;SDS011;38930;52.766;6.884;2022-07-18T03:45:37;10.10;;;6.73;;
53044;SDS011;38930;52.766;6.884;2022-07-18T03:48:02;10.23;;;5.97;;
53044;SDS011;38930;52.766;6.884;2022-07-18T03:50:28;10.33;;;6.53;;
53044;SDS011;38930;52.766;6.884;2022-07-18T03:52:54;8.27;;;6.40;;
53044;SDS011;38930;52.766;6.884;2022-07-18T03:55:20;10.13;;;6.30;;
53044;SDS011;38930;52.766;6.884;2022-07-18T03:57:46;11.52;;;6.10;;
53044;SDS011;38930;52.766;6.884;2022-07-18T04:00:12;8.50;;;6.60;;
53044;SDS011;38930;52.766;6.884;2022-07-18T04:02:42;8.80;;;6.18;;
53044;SDS011;38930;52.766;6.884;2022-07-18T04:05:08;8.75;;;6.20;;
53044;SDS011;38930;52.766;6.884;2022-07-18T04:07:35;10.65;;;5.93;;
53044;SDS011;38930;52.766;6.884;2022-07-18T04:10:01;9.93;;;6.57;;
53044;SDS011;38930;52.766;6.884;2022-07-18T04:12:26;7.50;;;5.93;;
53044;SDS011;38930;52.766;6.884;2022-07-18T04:14:52;9.10;;;5.85;;
53044;SDS011;38930;52.766;6.884;2022-07-18T04:17:18;8.90;;;5.93;;
53044;SDS011;38930;52.766;6.884;2022-07-18T04:19:43;9.27;;;5.60;;
53044;SDS011;38930;52.766;6.884;2022-07-18T04:22:09;9.67;;;5.97;;
53044;SDS011;38930;52.766;6.884;2022-07-18T04:24:34;8.40;;;5.60;;
53044;SDS011;38930;52.766;6.884;2022-07-18T04:27:00;9.43;;;6.13;;
53044;SDS011;38930;52.766;6.884;2022-07-18T04:29:25;8.63;;;5.70;;
53044;SDS011;38930;52.766;6.884;2022-07-18T04:31:51;8.03;;;5.30;;
53044;SDS011;38930;52.766;6.884;2022-07-18T04:34:17;9.40;;;6.03;;
53044;SDS011;38930;52.766;6.884;2022-07-18T04:36:42;12.77;;;5.40;;
53044;SDS011;38930;52.766;6.884;2022-07-18T04:39:08;7.22;;;4.88;;
53044;SDS011;38930;52.766;6.884;2022-07-18T04:41:34;6.33;;;4.80;;
53044;SDS011;38930;52.766;6.884;2022-07-18T04:44:00;8.53;;;5.10;;
53044;SDS011;38930;52.766;6.884;2022-07-18T04:46:25;8.03;;;5.40;;
53044;SDS011;38930;52.766;6.884;2022-07-18T04:48:51;7.67;;;4.90;;
53044;SDS011;38930;52.766;6.884;2022-07-18T04:51:16;7.20;;;5.00;;
53044;SDS011;38930;52.766;6.884;2022-07-18T04:53:42;9.70;;;5.17;;
53044;SDS011;38930;52.766;6.884;2022-07-18T04:56:07;8.60;;;5.47;;
53044;SDS011;38930;52.766;6.884;2022-07-18T04:58:33;8.17;;;5.40;;
53044;SDS011;38930;52.766;6.884;2022-07-18T05:00:59;8.80;;;5.17;;
53044;SDS011;38930;52.766;6.884;2022-07-18T05:03:24;8.37;;;5.30;;
53044;SDS011;38930;52.766;6.884;2022-07-18T05:05:50;7.13;;;5.20;;
53044;SDS011;38930;52.766;6.884;2022-07-18T05:08:15;7.73;;;5.03;;
53044;SDS011;38930;52.766;6.884;2022-07-18T05:10:41;8.67;;;5.43;;
53044;SDS011;38930;52.766;6.884;2022-07-18T05:13:06;9.87;;;5.23;;
53044;SDS011;38930;52.766;6.884;2022-07-18T05:15:32;7.17;;;5.17;;
53044;SDS011;38930;52.766;6.884;2022-07-18T05:17:58;8.77;;;4.87;;
53044;SDS011;38930;52.766;6.884;2022-07-18T05:20:24;6.53;;;4.83;;
53044;SDS011;38930;52.766;6.884;2022-07-18T05:22:51;7.82;;;4.35;;
53044;SDS011;38930;52.766;6.884;2022-07-18T05:25:18;8.30;;;5.10;;
53044;SDS011;38930;52.766;6.884;2022-07-18T05:27:44;8.15;;;4.78;;
53044;SDS011;38930;52.766;6.884;2022-07-18T05:30:10;7.57;;;4.83;;
53044;SDS011;38930;52.766;6.884;2022-07-18T05:32:38;6.43;;;4.30;;
53044;SDS011;38930;52.766;6.884;2022-07-18T05:35:05;8.57;;;4.75;;
53044;SDS011;38930;52.766;6.884;2022-07-18T05:37:32;9.95;;;5.03;;
53044;SDS011;38930;52.766;6.884;2022-07-18T05:40:00;6.72;;;4.53;;
53044;SDS011;38930;52.766;6.884;2022-07-18T05:42:27;6.65;;;4.68;;
53044;SDS011;38930;52.766;6.884;2022-07-18T05:44:52;8.27;;;4.73;;
53044;SDS011;38930;52.766;6.884;2022-07-18T05:47:18;6.63;;;4.00;;
53044;SDS011;38930;52.766;6.884;2022-07-18T05:49:44;6.23;;;4.20;;
53044;SDS011;38930;52.766;6.884;2022-07-18T05:52:09;6.37;;;4.40;;
53044;SDS011;38930;52.766;6.884;2022-07-18T05:54:35;9.10;;;4.47;;
53044;SDS011;38930;52.766;6.884;2022-07-18T05:57:00;7.30;;;4.30;;
53044;SDS011;38930;52.766;6.884;2022-07-18T05:59:26;7.00;;;4.10;;
53044;SDS011;38930;52.766;6.884;2022-07-18T06:01:52;6.27;;;4.20;;
53044;SDS011;38930;52.766;6.884;2022-07-18T06:04:17;7.30;;;4.27;;
53044;SDS011;38930;52.766;6.884;2022-07-18T06:06:43;7.80;;;4.13;;
53044;SDS011;38930;52.766;6.884;2022-07-18T06:09:13;6.60;;;4.30;;
53044;SDS011;38930;52.766;6.884;2022-07-18T06:11:39;5.63;;;3.70;;
53044;SDS011;38930;52.766;6.884;2022-07-18T06:14:04;8.03;;;3.90;;
53044;SDS011;38930;52.766;6.884;2022-07-18T06:16:31;8.93;;;3.67;;
53044;SDS011;38930;52.766;6.884;2022-07-18T06:18:57;8.07;;;3.67;;
53044;SDS011;38930;52.766;6.884;2022-07-18T06:21:23;11.80;;;3.80;;
53044;SDS011;38930;52.766;6.884;2022-07-18T06:23:49;5.77;;;3.47;;
53044;SDS011;38930;52.766;6.884;2022-07-18T06:26:14;6.17;;;3.57;;
53044;SDS011;38930;52.766;6.884;2022-07-18T06:28:40;10.07;;;3.83;;
53044;SDS011;38930;52.766;6.884;2022-07-18T06:31:06;5.93;;;3.60;;
53044;SDS011;38930;52.766;6.884;2022-07-18T06:33:31;5.90;;;3.47;;
53044;SDS011;38930;52.766;6.884;2022-07-18T06:35:57;8.33;;;3.40;;
53044;SDS011;38930;52.766;6.884;2022-07-18T06:38:23;6.47;;;3.37;;
53044;SDS011;38930;52.766;6.884;2022-07-18T06:40:48;7.17;;;3.17;;
53044;SDS011;38930;52.766;6.884;2022-07-18T06:43:14;5.93;;;2.87;;
53044;SDS011;38930;52.766;6.884;2022-07-18T06:45:44;7.43;;;2.97;;
53044;SDS011;38930;52.766;6.884;2022-07-18T06:48:11;6.30;;;2.92;;
53044;SDS011;38930;52.766;6.884;2022-07-18T06:50:37;5.30;;;3.13;;
53044;SDS011;38930;52.766;6.884;2022-07-18T06:53:03;10.87;;;2.93;;
53044;SDS011;38930;52.766;6.884;2022-07-18T06:55:28;6.63;;;3.03;;
53044;SDS011;38930;52.766;6.884;2022-07-18T06:57:54;5.27;;;2.93;;
53044;SDS011;38930;52.766;6.884;2022-07-18T07:00:20;5.60;;;3.10;;
53044;SDS011;38930;52.766;6.884;2022-07-18T07:02:46;5.70;;;2.70;;
53044;SDS011;38930;52.766;6.884;2022-07-18T07:05:14;7.32;;;2.75;;
53044;SDS011;38930;52.766;6.884;2022-07-18T07:07:41;5.90;;;2.78;;
53044;SDS011;38930;52.766;6.884;2022-07-18T07:10:07;5.00;;;2.88;;
53044;SDS011;38930;52.766;6.884;2022-07-18T07:12:40;7.80;;;2.57;;
53044;SDS011;38930;52.766;6.884;2022-07-18T07:15:10;4.73;;;2.50;;
53044;SDS011;38930;52.766;6.884;2022-07-18T07:17:36;4.27;;;2.57;;
53044;SDS011;38930;52.766;6.884;2022-07-18T07:20:05;4.75;;;2.65;;
53044;SDS011;38930;52.766;6.884;2022-07-18T07:22:33;6.10;;;2.58;;
53044;SDS011;38930;52.766;6.884;2022-07-18T07:25:09;6.25;;;2.53;;
53044;SDS011;38930;52.766;6.884;2022-07-18T07:27:36;6.35;;;2.35;;
53044;SDS011;38930;52.766;6.884;2022-07-18T07:30:01;6.00;;;2.20;;
53044;SDS011;38930;52.766;6.884;2022-07-18T07:32:28;7.78;;;2.30;;
53044;SDS011;38930;52.766;6.884;2022-07-18T07:34:53;5.43;;;2.30;;
53044;SDS011;38930;52.766;6.884;2022-07-18T07:37:19;4.60;;;2.20;;
53044;SDS011;38930;52.766;6.884;2022-07-18T07:39:44;12.67;;;2.40;;
53044;SDS011;38930;52.766;6.884;2022-07-18T07:42:11;5.75;;;2.42;;
53044;SDS011;38930;52.766;6.884;2022-07-18T07:44:36;6.13;;;2.07;;
53044;SDS011;38930;52.766;6.884;2022-07-18T07:47:02;5.47;;;2.07;;
53044;SDS011;38930;52.766;6.884;2022-07-18T07:49:27;6.63;;;2.13;;
53044;SDS011;38930;52.766;6.884;2022-07-18T07:51:54;5.40;;;2.22;;
53044;SDS011;38930;52.766;6.884;2022-07-18T07:54:19;4.23;;;2.17;;
53044;SDS011;38930;52.766;6.884;2022-07-18T07:56:45;6.27;;;2.20;;
53044;SDS011;38930;52.766;6.884;2022-07-18T07:59:10;5.80;;;1.97;;
53044;SDS011;38930;52.766;6.884;2022-07-18T08:01:36;3.83;;;2.13;;
53044;SDS011;38930;52.766;6.884;2022-07-18T08:04:01;9.97;;;2.00;;
53044;SDS011;38930;52.766;6.884;2022-07-18T08:06:27;4.40;;;1.93;;
53044;SDS011;38930;52.766;6.884;2022-07-18T08:08:53;4.00;;;1.83;;
53044;SDS011;38930;52.766;6.884;2022-07-18T08:11:18;9.20;;;2.33;;
53044;SDS011;38930;52.766;6.884;2022-07-18T08:13:44;5.67;;;1.87;;
53044;SDS011;38930;52.766;6.884;2022-07-18T08:16:09;6.57;;;1.80;;
53044;SDS011;38930;52.766;6.884;2022-07-18T08:18:35;5.43;;;1.90;;
53044;SDS011;38930;52.766;6.884;2022-07-18T08:21:02;9.20;;;1.87;;
53044;SDS011;38930;52.766;6.884;2022-07-18T08:25:53;5.18;;;1.90;;
53044;SDS011;38930;52.766;6.884;2022-07-18T08:28:19;3.47;;;1.60;;
53044;SDS011;38930;52.766;6.884;2022-07-18T08:30:44;5.73;;;1.60;;
53044;SDS011;38930;52.766;6.884;2022-07-18T08:33:10;5.87;;;1.83;;
53044;SDS011;38930;52.766;6.884;2022-07-18T08:35:35;7.47;;;1.60;;
53044;SDS011;38930;52.766;6.884;2022-07-18T08:38:02;5.20;;;1.63;;
53044;SDS011;38930;52.766;6.884;2022-07-18T08:42:54;4.88;;;1.55;;
53044;SDS011;38930;52.766;6.884;2022-07-18T08:45:21;6.93;;;1.90;;
53044;SDS011;38930;52.766;6.884;2022-07-18T08:47:49;4.03;;;1.48;;
53044;SDS011;38930;52.766;6.884;2022-07-18T08:50:15;4.38;;;1.30;;
53044;SDS011;38930;52.766;6.884;2022-07-18T08:52:41;3.20;;;1.40;;
53044;SDS011;38930;52.766;6.884;2022-07-18T08:55:07;3.80;;;1.60;;
53044;SDS011;38930;52.766;6.884;2022-07-18T08:57:33;6.68;;;1.90;;
53044;SDS011;38930;52.766;6.884;2022-07-18T08:59:59;4.50;;;1.37;;
53044;SDS011;38930;52.766;6.884;2022-07-18T09:02:26;6.78;;;1.55;;
53044;SDS011;38930;52.766;6.884;2022-07-18T09:04:53;4.20;;;1.42;;
53044;SDS011;38930;52.766;6.884;2022-07-18T09:07:28;4.88;;;1.20;;
53044;SDS011;38930;52.766;6.884;2022-07-18T09:09:59;7.95;;;1.50;;
53044;SDS011;38930;52.766;6.884;2022-07-18T09:12:27;5.43;;;1.50;;
53044;SDS011;38930;52.766;6.884;2022-07-18T09:14:56;3.35;;;1.30;;
53044;SDS011;38930;52.766;6.884;2022-07-18T09:17:24;4.13;;;1.45;;
53044;SDS011;38930;52.766;6.884;2022-07-18T09:22:29;3.42;;;1.50;;
53044;SDS011;38930;52.766;6.884;2022-07-18T09:25:02;4.10;;;1.80;;
53044;SDS011;38930;52.766;6.884;2022-07-18T09:27:46;4.22;;;1.40;;
53044;SDS011;38930;52.766;6.884;2022-07-18T09:35:41;6.93;;;1.50;;
53044;SDS011;38930;52.766;6.884;2022-07-18T09:38:19;6.53;;;1.65;;
53044;SDS011;38930;52.766;6.884;2022-07-18T09:40:50;4.72;;;1.50;;
53044;SDS011;38930;52.766;6.884;2022-07-18T09:43:21;5.07;;;1.50;;
53044;SDS011;38930;52.766;6.884;2022-07-18T09:45:49;4.50;;;1.30;;
53044;SDS011;38930;52.766;6.884;2022-07-18T09:48:24;2.58;;;1.08;;
53044;SDS011;38930;52.766;6.884;2022-07-18T09:50:52;3.80;;;1.40;;
53044;SDS011;38930;52.766;6.884;2022-07-18T09:53:36;4.50;;;1.33;;
53044;SDS011;38930;52.766;6.884;2022-07-18T09:56:03;4.63;;;1.63;;
53044;SDS011;38930;52.766;6.884;2022-07-18T09:58:38;4.63;;;1.63;;
53044;SDS011;38930;52.766;6.884;2022-07-18T10:01:14;3.78;;;1.33;;
53044;SDS011;38930;52.766;6.884;2022-07-18T10:03:40;8.77;;;1.63;;
53044;SDS011;38930;52.766;6.884;2022-07-18T10:06:05;3.90;;;1.43;;
53044;SDS011;38930;52.766;6.884;2022-07-18T10:08:32;5.65;;;1.77;;
53044;SDS011;38930;52.766;6.884;2022-07-18T10:10:59;5.88;;;2.00;;
53044;SDS011;38930;52.766;6.884;2022-07-18T10:13:27;4.65;;;1.80;;
53044;SDS011;38930;52.766;6.884;2022-07-18T10:15:54;3.28;;;1.90;;
53044;SDS011;38930;52.766;6.884;2022-07-18T10:18:20;3.90;;;1.60;;
53044;SDS011;38930;52.766;6.884;2022-07-18T10:20:58;4.10;;;1.85;;
53044;SDS011;38930;52.766;6.884;2022-07-18T10:23:31;5.90;;;2.00;;
53044;SDS011;38930;52.766;6.884;2022-07-18T10:29:08;4.38;;;1.75;;
53044;SDS011;38930;52.766;6.884;2022-07-18T10:31:30;4.53;;;1.88;;
53044;SDS011;38930;52.766;6.884;2022-07-18T10:34:31;6.45;;;1.70;;
53044;SDS011;38930;52.766;6.884;2022-07-18T10:39:19;6.75;;;2.30;;
53044;SDS011;38930;52.766;6.884;2022-07-18T10:57:41;5.68;;;1.90;;
53044;SDS011;38930;52.766;6.884;2022-07-18T11:00:34;5.50;;;1.85;;
53044;SDS011;38930;52.766;6.884;2022-07-18T11:03:05;4.25;;;1.55;;
53044;SDS011;38930;52.766;6.884;2022-07-18T11:05:33;5.93;;;1.83;;
53044;SDS011;38930;52.766;6.884;2022-07-18T11:18:30;4.70;;;1.83;;
53044;SDS011;38930;52.766;6.884;2022-07-18T11:20:56;3.65;;;2.05;;
53044;SDS011;38930;52.766;6.884;2022-07-18T11:23:23;5.15;;;1.98;;
53044;SDS011;38930;52.766;6.884;2022-07-18T11:25:51;4.80;;;1.70;;
53044;SDS011;38930;52.766;6.884;2022-07-18T11:28:21;4.97;;;1.83;;
53044;SDS011;38930;52.766;6.884;2022-07-18T11:30:58;6.03;;;2.20;;
53044;SDS011;38930;52.766;6.884;2022-07-18T11:33:31;4.53;;;2.15;;
53044;SDS011;38930;52.766;6.884;2022-07-18T11:36:09;4.18;;;2.00;;
53044;SDS011;38930;52.766;6.884;2022-07-18T11:38:45;3.92;;;2.30;;
53044;SDS011;38930;52.766;6.884;2022-07-18T11:41:21;5.95;;;2.33;;
53044;SDS011;38930;52.766;6.884;2022-07-18T11:43:48;6.20;;;2.40;;
53044;SDS011;38930;52.766;6.884;2022-07-18T11:46:16;6.80;;;2.28;;
53044;SDS011;38930;52.766;6.884;2022-07-18T11:48:44;5.60;;;2.58;;
53044;SDS011;38930;52.766;6.884;2022-07-18T11:51:12;4.53;;;2.35;;
53044;SDS011;38930;52.766;6.884;2022-07-18T11:53:47;3.75;;;2.20;;
53044;SDS011;38930;52.766;6.884;2022-07-18T11:56:14;5.68;;;2.40;;
53044;SDS011;38930;52.766;6.884;2022-07-18T11:58:42;6.72;;;2.05;;
53044;SDS011;38930;52.766;6.884;2022-07-18T12:01:08;5.38;;;2.75;;
53044;SDS011;38930;52.766;6.884;2022-07-18T12:03:42;5.45;;;2.67;;
53044;SDS011;38930;52.766;6.884;2022-07-18T12:06:14;5.57;;;2.40;;
53044;SDS011;38930;52.766;6.884;2022-07-18T12:08:43;4.00;;;2.50;;
53044;SDS011;38930;52.766;6.884;2022-07-18T12:16:23;6.07;;;2.40;;
53044;SDS011;38930;52.766;6.884;2022-07-18T12:18:52;8.80;;;3.30;;
53044;SDS011;38930;52.766;6.884;2022-07-18T12:21:24;4.40;;;2.83;;
53044;SDS011;38930;52.766;6.884;2022-07-18T12:26:42;7.75;;;2.70;;
53044;SDS011;38930;52.766;6.884;2022-07-18T12:29:08;6.70;;;2.67;;
53044;SDS011;38930;52.766;6.884;2022-07-18T12:31:42;4.05;;;2.35;;
53044;SDS011;38930;52.766;6.884;2022-07-18T12:34:09;5.60;;;2.67;;
53044;SDS011;38930;52.766;6.884;2022-07-18T12:36:53;18.75;;;4.30;;
53044;SDS011;38930;52.766;6.884;2022-07-18T12:39:41;6.63;;;2.20;;
53044;SDS011;38930;52.766;6.884;2022-07-18T12:42:06;5.20;;;2.30;;
53044;SDS011;38930;52.766;6.884;2022-07-18T12:44:32;5.20;;;2.60;;
53044;SDS011;38930;52.766;6.884;2022-07-18T12:46:57;4.73;;;2.20;;
53044;SDS011;38930;52.766;6.884;2022-07-18T12:49:23;4.93;;;2.40;;
53044;SDS011;38930;52.766;6.884;2022-07-18T12:51:48;5.67;;;2.43;;
53044;SDS011;38930;52.766;6.884;2022-07-18T12:54:15;4.72;;;2.45;;
53044;SDS011;38930;52.766;6.884;2022-07-18T12:56:41;4.82;;;2.28;;
53044;SDS011;38930;52.766;6.884;2022-07-18T12:59:07;5.63;;;2.40;;
53044;SDS011;38930;52.766;6.884;2022-07-18T13:01:33;6.35;;;2.30;;
53044;SDS011;38930;52.766;6.884;2022-07-18T13:03:58;4.45;;;2.20;;
53044;SDS011;38930;52.766;6.884;2022-07-18T13:06:24;4.43;;;2.25;;
53044;SDS011;38930;52.766;6.884;2022-07-18T13:08:49;5.03;;;2.13;;
53044;SDS011;38930;52.766;6.884;2022-07-18T13:11:15;3.60;;;2.00;;
53044;SDS011;38930;52.766;6.884;2022-07-18T13:13:41;3.75;;;1.80;;
53044;SDS011;38930;52.766;6.884;2022-07-18T13:16:06;3.28;;;2.00;;
53044;SDS011;38930;52.766;6.884;2022-07-18T13:18:32;5.20;;;2.35;;
53044;SDS011;38930;52.766;6.884;2022-07-18T13:20:58;7.13;;;1.90;;
53044;SDS011;38930;52.766;6.884;2022-07-18T13:23:24;5.70;;;2.17;;
53044;SDS011;38930;52.766;6.884;2022-07-18T13:25:50;4.13;;;2.08;;
53044;SDS011;38930;52.766;6.884;2022-07-18T13:28:15;3.95;;;2.15;;
53044;SDS011;38930;52.766;6.884;2022-07-18T13:30:41;4.28;;;1.90;;
53044;SDS011;38930;52.766;6.884;2022-07-18T13:33:07;8.93;;;2.50;;
53044;SDS011;38930;52.766;6.884;2022-07-18T13:35:33;4.10;;;1.83;;
53044;SDS011;38930;52.766;6.884;2022-07-18T13:40:24;5.53;;;2.00;;
53044;SDS011;38930;52.766;6.884;2022-07-18T13:42:50;5.45;;;2.22;;
53044;SDS011;38930;52.766;6.884;2022-07-18T13:45:15;3.73;;;1.90;;
53044;SDS011;38930;52.766;6.884;2022-07-18T13:47:41;6.13;;;2.10;;
53044;SDS011;38930;52.766;6.884;2022-07-18T13:50:08;4.43;;;2.30;;
53044;SDS011;38930;52.766;6.884;2022-07-18T13:52:35;6.10;;;2.50;;
53044;SDS011;38930;52.766;6.884;2022-07-18T13:55:01;5.13;;;2.03;;
53044;SDS011;38930;52.766;6.884;2022-07-18T13:57:26;5.65;;;2.50;;
53044;SDS011;38930;52.766;6.884;2022-07-18T13:59:52;3.55;;;1.70;;
53044;SDS011;38930;52.766;6.884;2022-07-18T14:02:18;4.40;;;1.88;;
53044;SDS011;38930;52.766;6.884;2022-07-18T14:04:43;4.20;;;2.05;;
53044;SDS011;38930;52.766;6.884;2022-07-18T14:07:09;5.05;;;1.90;;
53044;SDS011;38930;52.766;6.884;2022-07-18T14:09:36;3.45;;;1.95;;
53044;SDS011;38930;52.766;6.884;2022-07-18T14:14:28;7.07;;;2.42;;
53044;SDS011;38930;52.766;6.884;2022-07-18T14:16:54;6.32;;;2.28;;
53044;SDS011;38930;52.766;6.884;2022-07-18T14:19:20;4.95;;;2.53;;
53044;SDS011;38930;52.766;6.884;2022-07-18T14:21:45;5.95;;;2.20;;
53044;SDS011;38930;52.766;6.884;2022-07-18T14:24:11;4.63;;;2.35;;
53044;SDS011;38930;52.766;6.884;2022-07-18T14:26:37;4.40;;;2.00;;
53044;SDS011;38930;52.766;6.884;2022-07-18T14:29:02;4.23;;;2.00;;
53044;SDS011;38930;52.766;6.884;2022-07-18T14:31:28;5.40;;;2.25;;
53044;SDS011;38930;52.766;6.884;2022-07-18T14:33:54;4.67;;;2.20;;
53044;SDS011;38930;52.766;6.884;2022-07-18T14:36:19;4.20;;;1.87;;
53044;SDS011;38930;52.766;6.884;2022-07-18T14:38:45;3.80;;;1.85;;
53044;SDS011;38930;52.766;6.884;2022-07-18T14:41:10;2.80;;;1.88;;
53044;SDS011;38930;52.766;6.884;2022-07-18T14:43:37;3.50;;;1.77;;
53044;SDS011;38930;52.766;6.884;2022-07-18T14:46:02;4.80;;;2.15;;
53044;SDS011;38930;52.766;6.884;2022-07-18T14:48:28;4.00;;;2.00;;
53044;SDS011;38930;52.766;6.884;2022-07-18T14:50:54;3.35;;;1.80;;
53044;SDS011;38930;52.766;6.884;2022-07-18T14:53:20;4.53;;;2.22;;
53044;SDS011;38930;52.766;6.884;2022-07-18T14:55:46;9.77;;;2.63;;
53044;SDS011;38930;52.766;6.884;2022-07-18T14:58:11;5.68;;;2.20;;
53044;SDS011;38930;52.766;6.884;2022-07-18T15:00:39;3.83;;;2.05;;
53044;SDS011;38930;52.766;6.884;2022-07-18T15:03:05;4.32;;;2.17;;
53044;SDS011;38930;52.766;6.884;2022-07-18T15:05:31;4.80;;;1.90;;
53044;SDS011;38930;52.766;6.884;2022-07-18T15:07:56;4.45;;;2.13;;
53044;SDS011;38930;52.766;6.884;2022-07-18T15:10:22;4.25;;;2.10;;
53044;SDS011;38930;52.766;6.884;2022-07-18T15:12:47;3.22;;;1.88;;
53044;SDS011;38930;52.766;6.884;2022-07-18T15:15:13;5.10;;;2.10;;
53044;SDS011;38930;52.766;6.884;2022-07-18T15:17:39;5.88;;;2.08;;
53044;SDS011;38930;52.766;6.884;2022-07-18T15:20:04;5.45;;;2.20;;
53044;SDS011;38930;52.766;6.884;2022-07-18T15:22:31;4.70;;;1.85;;
53044;SDS011;38930;52.766;6.884;2022-07-18T15:24:56;5.20;;;1.83;;
53044;SDS011;38930;52.766;6.884;2022-07-18T15:27:22;4.72;;;2.20;;
53044;SDS011;38930;52.766;6.884;2022-07-18T15:29:48;3.78;;;2.17;;
53044;SDS011;38930;52.766;6.884;2022-07-18T15:32:13;4.35;;;2.15;;
53044;SDS011;38930;52.766;6.884;2022-07-18T15:34:39;5.50;;;1.90;;
53044;SDS011;38930;52.766;6.884;2022-07-18T15:37:05;3.17;;;1.77;;
53044;SDS011;38930;52.766;6.884;2022-07-18T15:41:57;4.82;;;2.03;;
53044;SDS011;38930;52.766;6.884;2022-07-18T15:44:24;5.88;;;2.00;;
53044;SDS011;38930;52.766;6.884;2022-07-18T15:46:50;4.63;;;2.08;;